sensor_id;sensor_type;location;lat;lon;timestamp;pressure;altitude;pressure_sealevel;temperature;humidity
26443;BME280;5563;52.296;6.806;2023-04-10T00:01:45;102073.59;;;6.87;64.34
26443;BME280;5563;52.296;6.806;2023-04-10T00:04:12;102088.91;;;6.99;64.85
26443;BME280;5563;52.296;6.806;2023-04-10T00:06:48;102077.91;;;6.90;64.57
26443;BME280;5563;52.296;6.806;2023-04-10T00:09:15;102086.50;;;6.95;64.35
26443;BME280;5563;52.296;6.806;2023-04-10T00:11:42;102072.59;;;6.90;64.50
26443;BME280;5563;52.296;6.806;2023-04-10T00:14:15;102083.78;;;6.96;64.55
26443;BME280;5563;52.296;6.806;2023-04-10T00:16:54;102102.69;;;7.07;64.45
26443;BME280;5563;52.296;6.806;2023-04-10T00:19:21;102088.91;;;6.99;64.23
26443;BME280;5563;52.296;6.806;2023-04-10T00:21:55;102087.13;;;7.00;64.59
26443;BME280;5563;52.296;6.806;2023-04-10T00:24:31;102084.56;;;6.98;64.59
26443;BME280;5563;52.296;6.806;2023-04-10T00:26:58;102087.78;;;7.05;64.89
26443;BME280;5563;52.296;6.806;2023-04-10T00:29:34;102055.97;;;6.86;64.37
26443;BME280;5563;52.296;6.806;2023-04-10T00:32:11;102067.06;;;6.94;63.55
26443;BME280;5563;52.296;6.806;2023-04-10T00:34:45;102047.94;;;6.88;63.87
26443;BME280;5563;52.296;6.806;2023-04-10T00:37:12;102066.00;;;6.98;63.90
26443;BME280;5563;52.296;6.806;2023-04-10T00:39:46;102045.06;;;6.92;63.65
26443;BME280;5563;52.296;6.806;2023-04-10T00:42:13;102038.84;;;6.93;64.27
26443;BME280;5563;52.296;6.806;2023-04-10T00:44:46;102055.69;;;7.11;63.54
26443;BME280;5563;52.296;6.806;2023-04-10T00:47:14;102073.91;;;7.18;63.55
26443;BME280;5563;52.296;6.806;2023-04-10T00:49:48;102045.34;;;7.05;63.65
26443;BME280;5563;52.296;6.806;2023-04-10T00:52:15;102043.41;;;7.08;64.03
26443;BME280;5563;52.296;6.806;2023-04-10T00:54:42;102045.16;;;7.09;63.79
26443;BME280;5563;52.296;6.806;2023-04-10T00:57:16;102050.66;;;7.05;64.06
26443;BME280;5563;52.296;6.806;2023-04-10T00:59:43;102046.31;;;7.04;64.63
26443;BME280;5563;52.296;6.806;2023-04-10T01:02:16;102037.75;;;6.97;64.17
26443;BME280;5563;52.296;6.806;2023-04-10T01:04:43;102022.94;;;6.93;64.07
26443;BME280;5563;52.296;6.806;2023-04-10T01:10:40;102040.06;;;7.05;63.86
26443;BME280;5563;52.296;6.806;2023-04-10T01:13:24;102036.34;;;7.09;63.65
26443;BME280;5563;52.296;6.806;2023-04-10T01:16:35;102012.25;;;6.95;63.44
26443;BME280;5563;52.296;6.806;2023-04-10T01:22:16;101994.28;;;6.83;64.14
26443;BME280;5563;52.296;6.806;2023-04-10T01:30:42;101989.13;;;6.80;64.04
26443;BME280;5563;52.296;6.806;2023-04-10T01:33:18;102012.34;;;6.93;64.05
26443;BME280;5563;52.296;6.806;2023-04-10T01:35:54;102001.84;;;6.90;64.02
26443;BME280;5563;52.296;6.806;2023-04-10T01:38:32;102002.88;;;6.88;64.24
26443;BME280;5563;52.296;6.806;2023-04-10T01:41:00;101986.34;;;6.83;63.90
26443;BME280;5563;52.296;6.806;2023-04-10T01:43:35;102008.66;;;6.96;63.91
26443;BME280;5563;52.296;6.806;2023-04-10T01:46:14;101999.00;;;6.95;64.14
26443;BME280;5563;52.296;6.806;2023-04-10T01:48:43;102004.00;;;7.01;63.89
26443;BME280;5563;52.296;6.806;2023-04-10T01:51:16;102015.84;;;7.12;63.56
26443;BME280;5563;52.296;6.806;2023-04-10T01:53:47;102000.28;;;7.05;63.47
26443;BME280;5563;52.296;6.806;2023-04-10T01:56:21;101988.75;;;7.06;63.67
26443;BME280;5563;52.296;6.806;2023-04-10T01:58:48;102006.56;;;7.21;63.46
26443;BME280;5563;52.296;6.806;2023-04-10T02:01:22;102004.78;;;7.21;63.57
26443;BME280;5563;52.296;6.806;2023-04-10T02:03:57;101987.38;;;7.16;63.71
26443;BME280;5563;52.296;6.806;2023-04-10T02:06:43;101975.41;;;7.07;63.50
26443;BME280;5563;52.296;6.806;2023-04-10T02:09:25;101975.50;;;7.06;63.52
26443;BME280;5563;52.296;6.806;2023-04-10T02:12:04;101980.56;;;7.10;63.67
26443;BME280;5563;52.296;6.806;2023-04-10T02:14:41;101968.47;;;7.05;63.53
26443;BME280;5563;52.296;6.806;2023-04-10T02:17:13;101991.00;;;7.13;63.58
26443;BME280;5563;52.296;6.806;2023-04-10T02:19:48;102000.38;;;7.20;63.63
26443;BME280;5563;52.296;6.806;2023-04-10T02:22:16;101985.09;;;7.08;63.47
26443;BME280;5563;52.296;6.806;2023-04-10T02:24:51;101983.28;;;7.09;63.48
26443;BME280;5563;52.296;6.806;2023-04-10T02:27:32;101988.44;;;7.12;63.54
26443;BME280;5563;52.296;6.806;2023-04-10T02:30:13;101988.44;;;7.12;63.72
26443;BME280;5563;52.296;6.806;2023-04-10T02:32:39;101975.34;;;7.09;63.59
26443;BME280;5563;52.296;6.806;2023-04-10T02:35:14;101980.66;;;7.09;63.61
26443;BME280;5563;52.296;6.806;2023-04-10T02:37:41;101973.59;;;7.08;63.45
26443;BME280;5563;52.296;6.806;2023-04-10T02:40:15;101966.84;;;7.02;63.45
26443;BME280;5563;52.296;6.806;2023-04-10T02:42:42;101951.13;;;6.98;63.59
26443;BME280;5563;52.296;6.806;2023-04-10T02:45:15;101969.31;;;7.05;63.73
26443;BME280;5563;52.296;6.806;2023-04-10T02:47:43;101974.56;;;7.07;63.77
26443;BME280;5563;52.296;6.806;2023-04-10T02:50:17;101969.97;;;7.10;63.85
26443;BME280;5563;52.296;6.806;2023-04-10T02:52:44;101983.94;;;7.14;64.22
26443;BME280;5563;52.296;6.806;2023-04-10T02:55:17;101948.31;;;7.01;63.92
26443;BME280;5563;52.296;6.806;2023-04-10T02:57:44;101955.03;;;7.08;63.89
26443;BME280;5563;52.296;6.806;2023-04-10T03:00:12;101959.28;;;7.12;64.33
26443;BME280;5563;52.296;6.806;2023-04-10T03:02:46;101948.91;;;7.07;64.19
26443;BME280;5563;52.296;6.806;2023-04-10T03:05:13;101935.00;;;7.02;64.03
26443;BME280;5563;52.296;6.806;2023-04-10T03:07:47;101945.31;;;7.08;63.79
26443;BME280;5563;52.296;6.806;2023-04-10T03:10:14;101944.22;;;7.12;63.73
26443;BME280;5563;52.296;6.806;2023-04-10T03:12:47;101945.94;;;7.13;63.71
26443;BME280;5563;52.296;6.806;2023-04-10T03:15:15;101931.06;;;7.11;63.96
26443;BME280;5563;52.296;6.806;2023-04-10T03:17:49;101944.78;;;7.19;64.00
26443;BME280;5563;52.296;6.806;2023-04-10T03:20:19;101914.72;;;7.01;63.97
26443;BME280;5563;52.296;6.806;2023-04-10T03:22:53;101929.22;;;7.11;63.80
26443;BME280;5563;52.296;6.806;2023-04-10T03:25:20;101936.03;;;7.17;63.39
26443;BME280;5563;52.296;6.806;2023-04-10T03:28:02;101943.00;;;7.19;63.48
26443;BME280;5563;52.296;6.806;2023-04-10T03:30:41;101917.88;;;7.09;63.70
26443;BME280;5563;52.296;6.806;2023-04-10T03:33:15;101910.13;;;7.05;63.24
26443;BME280;5563;52.296;6.806;2023-04-10T03:35:42;101934.03;;;7.22;63.88
26443;BME280;5563;52.296;6.806;2023-04-10T03:38:15;101946.81;;;7.31;63.19
26443;BME280;5563;52.296;6.806;2023-04-10T03:40:56;101910.53;;;7.14;63.41
26443;BME280;5563;52.296;6.806;2023-04-10T03:43:23;101925.91;;;7.25;63.46
26443;BME280;5563;52.296;6.806;2023-04-10T03:45:58;101918.63;;;7.11;63.64
26443;BME280;5563;52.296;6.806;2023-04-10T03:48:25;101931.16;;;7.26;63.40
26443;BME280;5563;52.296;6.806;2023-04-10T03:51:01;101920.91;;;7.19;63.63
26443;BME280;5563;52.296;6.806;2023-04-10T03:53:28;101923.72;;;7.16;63.16
26443;BME280;5563;52.296;6.806;2023-04-10T03:56:03;101931.50;;;7.19;63.34
26443;BME280;5563;52.296;6.806;2023-04-10T03:58:30;101918.56;;;7.13;63.39
26443;BME280;5563;52.296;6.806;2023-04-10T04:01:04;101942.84;;;7.22;63.78
26443;BME280;5563;52.296;6.806;2023-04-10T04:03:31;101928.22;;;7.14;63.38
26443;BME280;5563;52.296;6.806;2023-04-10T04:06:05;101930.97;;;7.12;63.55
26443;BME280;5563;52.296;6.806;2023-04-10T04:08:38;101918.63;;;7.11;63.55
26443;BME280;5563;52.296;6.806;2023-04-10T04:11:05;101921.44;;;7.08;63.47
26443;BME280;5563;52.296;6.806;2023-04-10T04:13:38;101923.31;;;7.06;64.21
26443;BME280;5563;52.296;6.806;2023-04-10T04:16:06;101929.84;;;6.99;64.46
26443;BME280;5563;52.296;6.806;2023-04-10T04:18:40;101940.25;;;7.04;64.34
26443;BME280;5563;52.296;6.806;2023-04-10T04:21:07;101932.56;;;6.98;64.75
26443;BME280;5563;52.296;6.806;2023-04-10T04:23:34;101935.47;;;6.93;64.59
26443;BME280;5563;52.296;6.806;2023-04-10T04:26:08;101916.03;;;6.74;64.57
26443;BME280;5563;52.296;6.806;2023-04-10T04:28:41;101921.31;;;6.76;64.67
26443;BME280;5563;52.296;6.806;2023-04-10T04:31:14;101915.34;;;6.71;64.88
26443;BME280;5563;52.296;6.806;2023-04-10T04:33:48;101916.13;;;6.73;65.01
26443;BME280;5563;52.296;6.806;2023-04-10T04:36:15;101918.56;;;6.77;65.03
26443;BME280;5563;52.296;6.806;2023-04-10T04:38:52;101887.94;;;6.53;64.74
26443;BME280;5563;52.296;6.806;2023-04-10T04:41:19;101914.41;;;6.53;65.38
26443;BME280;5563;52.296;6.806;2023-04-10T04:43:53;101903.50;;;6.42;65.72
26443;BME280;5563;52.296;6.806;2023-04-10T04:46:28;101894.38;;;6.29;65.90
26443;BME280;5563;52.296;6.806;2023-04-10T04:49:02;101918.44;;;6.43;65.53
26443;BME280;5563;52.296;6.806;2023-04-10T04:51:36;101917.72;;;6.39;66.06
26443;BME280;5563;52.296;6.806;2023-04-10T04:54:10;101889.50;;;6.20;66.17
26443;BME280;5563;52.296;6.806;2023-04-10T04:56:47;101884.06;;;6.23;66.08
26443;BME280;5563;52.296;6.806;2023-04-10T04:59:21;101887.66;;;6.22;66.00
26443;BME280;5563;52.296;6.806;2023-04-10T05:01:55;101917.50;;;6.44;66.16
26443;BME280;5563;52.296;6.806;2023-04-10T05:04:22;101897.03;;;6.29;66.36
26443;BME280;5563;52.296;6.806;2023-04-10T05:06:56;101905.63;;;6.34;66.66
26443;BME280;5563;52.296;6.806;2023-04-10T05:09:22;101884.00;;;6.24;66.40
26443;BME280;5563;52.296;6.806;2023-04-10T05:11:56;101888.94;;;6.32;66.47
26443;BME280;5563;52.296;6.806;2023-04-10T05:14:30;101907.69;;;6.46;66.47
26443;BME280;5563;52.296;6.806;2023-04-10T05:17:04;101891.31;;;6.38;66.49
26443;BME280;5563;52.296;6.806;2023-04-10T05:19:38;101904.13;;;6.47;66.47
26443;BME280;5563;52.296;6.806;2023-04-10T05:22:15;101900.47;;;6.49;66.43
26443;BME280;5563;52.296;6.806;2023-04-10T05:24:44;101882.00;;;6.48;66.05
26443;BME280;5563;52.296;6.806;2023-04-10T05:27:25;101875.91;;;6.46;65.87
26443;BME280;5563;52.296;6.806;2023-04-10T05:30:06;101873.75;;;6.54;66.03
26443;BME280;5563;52.296;6.806;2023-04-10T05:32:40;101870.41;;;6.50;65.79
26443;BME280;5563;52.296;6.806;2023-04-10T05:35:07;101880.34;;;6.64;65.83
26443;BME280;5563;52.296;6.806;2023-04-10T05:37:41;101864.59;;;6.61;65.69
26443;BME280;5563;52.296;6.806;2023-04-10T05:40:08;101884.19;;;6.76;65.35
26443;BME280;5563;52.296;6.806;2023-04-10T05:42:42;101890.13;;;6.81;65.67
26443;BME280;5563;52.296;6.806;2023-04-10T05:45:19;101894.28;;;6.86;65.53
26443;BME280;5563;52.296;6.806;2023-04-10T05:47:46;101888.03;;;6.87;65.07
26443;BME280;5563;52.296;6.806;2023-04-10T05:50:20;101873.97;;;6.85;64.98
26443;BME280;5563;52.296;6.806;2023-04-10T05:52:48;101894.91;;;7.08;64.97
26443;BME280;5563;52.296;6.806;2023-04-10T05:55:22;101878.78;;;7.13;64.72
26443;BME280;5563;52.296;6.806;2023-04-10T05:57:56;101877.38;;;7.23;64.02
26443;BME280;5563;52.296;6.806;2023-04-10T06:00:23;101872.16;;;7.38;63.26
26443;BME280;5563;52.296;6.806;2023-04-10T06:02:57;101859.69;;;7.40;63.65
26443;BME280;5563;52.296;6.806;2023-04-10T06:05:24;101868.47;;;7.58;62.89
26443;BME280;5563;52.296;6.806;2023-04-10T06:07:58;101863.56;;;7.68;62.54
26443;BME280;5563;52.296;6.806;2023-04-10T06:10:32;101850.03;;;7.72;62.13
26443;BME280;5563;52.296;6.806;2023-04-10T06:13:06;101878.47;;;8.03;62.13
26443;BME280;5563;52.296;6.806;2023-04-10T06:15:36;101844.16;;;7.98;61.72
26443;BME280;5563;52.296;6.806;2023-04-10T06:18:10;101827.69;;;8.09;61.03
26443;BME280;5563;52.296;6.806;2023-04-10T06:20:37;101866.97;;;8.35;60.58
26443;BME280;5563;52.296;6.806;2023-04-10T06:23:12;101848.69;;;8.44;59.87
26443;BME280;5563;52.296;6.806;2023-04-10T06:25:39;101852.22;;;8.60;59.39
26443;BME280;5563;52.296;6.806;2023-04-10T06:28:19;101845.34;;;8.72;58.96
26443;BME280;5563;52.296;6.806;2023-04-10T06:30:46;101843.97;;;8.81;59.17
26443;BME280;5563;52.296;6.806;2023-04-10T06:33:20;101843.09;;;8.96;58.62
26443;BME280;5563;52.296;6.806;2023-04-10T06:35:55;101844.34;;;9.04;58.07
26443;BME280;5563;52.296;6.806;2023-04-10T06:38:22;101832.50;;;9.10;57.29
26443;BME280;5563;52.296;6.806;2023-04-10T06:40:56;101820.16;;;9.23;56.87
26443;BME280;5563;52.296;6.806;2023-04-10T06:43:26;101825.59;;;9.35;56.65
26443;BME280;5563;52.296;6.806;2023-04-10T06:46:01;101849.50;;;9.51;56.00
26443;BME280;5563;52.296;6.806;2023-04-10T06:48:30;101838.28;;;9.46;55.90
26443;BME280;5563;52.296;6.806;2023-04-10T06:51:04;101856.81;;;9.61;56.00
26443;BME280;5563;52.296;6.806;2023-04-10T06:53:32;101829.84;;;9.53;55.59
26443;BME280;5563;52.296;6.806;2023-04-10T06:56:06;101829.53;;;9.58;55.12
26443;BME280;5563;52.296;6.806;2023-04-10T06:58:33;101814.63;;;9.55;55.47
26443;BME280;5563;52.296;6.806;2023-04-10T07:01:07;101804.84;;;9.56;55.63
26443;BME280;5563;52.296;6.806;2023-04-10T07:03:34;101823.66;;;9.67;55.19
26443;BME280;5563;52.296;6.806;2023-04-10T07:06:09;101824.81;;;9.77;55.75
26443;BME280;5563;52.296;6.806;2023-04-10T07:08:39;101806.84;;;9.80;54.85
26443;BME280;5563;52.296;6.806;2023-04-10T07:11:13;101804.75;;;9.86;54.77
26443;BME280;5563;52.296;6.806;2023-04-10T07:13:43;101786.34;;;9.95;54.04
26443;BME280;5563;52.296;6.806;2023-04-10T07:16:12;101800.94;;;10.18;54.19
26443;BME280;5563;52.296;6.806;2023-04-10T07:18:46;101790.16;;;10.19;53.50
26443;BME280;5563;52.296;6.806;2023-04-10T07:21:14;101787.69;;;10.30;52.80
26443;BME280;5563;52.296;6.806;2023-04-10T07:23:48;101764.06;;;10.24;52.95
26443;BME280;5563;52.296;6.806;2023-04-10T07:26:15;101765.50;;;10.30;52.27
26443;BME280;5563;52.296;6.806;2023-04-10T07:28:49;101776.41;;;10.39;52.64
26443;BME280;5563;52.296;6.806;2023-04-10T07:31:22;101779.53;;;10.46;52.61
26443;BME280;5563;52.296;6.806;2023-04-10T07:33:56;101759.47;;;10.40;52.30
26443;BME280;5563;52.296;6.806;2023-04-10T07:36:23;101759.47;;;10.40;52.71
26443;BME280;5563;52.296;6.806;2023-04-10T07:38:57;101772.34;;;10.60;51.43
26443;BME280;5563;52.296;6.806;2023-04-10T07:41:24;101762.97;;;10.67;51.72
26443;BME280;5563;52.296;6.806;2023-04-10T07:43:57;101751.69;;;10.76;50.93
26443;BME280;5563;52.296;6.806;2023-04-10T07:46:23;101746.44;;;10.75;51.21
26443;BME280;5563;52.296;6.806;2023-04-10T07:48:59;101737.06;;;10.82;50.86
26443;BME280;5563;52.296;6.806;2023-04-10T07:51:25;101740.50;;;10.97;50.69
26443;BME280;5563;52.296;6.806;2023-04-10T07:53:59;101729.09;;;11.07;51.17
26443;BME280;5563;52.296;6.806;2023-04-10T07:56:26;101706.28;;;11.16;50.01
26443;BME280;5563;52.296;6.806;2023-04-10T07:59:02;101719.28;;;11.45;49.19
26443;BME280;5563;52.296;6.806;2023-04-10T08:01:29;101713.19;;;11.56;49.18
26443;BME280;5563;52.296;6.806;2023-04-10T08:03:56;101708.38;;;11.61;48.29
26443;BME280;5563;52.296;6.806;2023-04-10T08:06:31;101698.00;;;11.69;48.42
26443;BME280;5563;52.296;6.806;2023-04-10T08:08:59;101686.38;;;11.70;48.04
26443;BME280;5563;52.296;6.806;2023-04-10T08:11:34;101684.09;;;11.76;48.33
26443;BME280;5563;52.296;6.806;2023-04-10T08:14:04;101669.13;;;11.86;47.48
26443;BME280;5563;52.296;6.806;2023-04-10T08:16:43;101678.81;;;12.00;47.71
26443;BME280;5563;52.296;6.806;2023-04-10T08:19:11;101659.06;;;11.90;46.49
26443;BME280;5563;52.296;6.806;2023-04-10T08:21:45;101685.28;;;12.09;47.43
26443;BME280;5563;52.296;6.806;2023-04-10T08:24:12;101645.75;;;12.01;46.18
26443;BME280;5563;52.296;6.806;2023-04-10T08:26:46;101665.09;;;12.28;46.28
26443;BME280;5563;52.296;6.806;2023-04-10T08:29:28;101652.03;;;12.36;46.45
26443;BME280;5563;52.296;6.806;2023-04-10T08:32:02;101653.88;;;12.47;45.47
26443;BME280;5563;52.296;6.806;2023-04-10T08:34:35;101654.25;;;12.53;45.81
26443;BME280;5563;52.296;6.806;2023-04-10T08:37:09;101648.16;;;12.51;44.50
26443;BME280;5563;52.296;6.806;2023-04-10T08:39:44;101654.88;;;12.57;45.32
26443;BME280;5563;52.296;6.806;2023-04-10T08:42:11;101665.47;;;12.58;45.45
26443;BME280;5563;52.296;6.806;2023-04-10T08:44:43;101632.50;;;12.58;45.70
26443;BME280;5563;52.296;6.806;2023-04-10T08:47:13;101631.06;;;12.65;44.94
26443;BME280;5563;52.296;6.806;2023-04-10T08:49:56;101622.31;;;12.74;45.86
26443;BME280;5563;52.296;6.806;2023-04-10T08:52:28;101629.88;;;12.80;44.90
26443;BME280;5563;52.296;6.806;2023-04-10T08:55:07;101637.63;;;12.72;43.86
26443;BME280;5563;52.296;6.806;2023-04-10T08:57:36;101652.25;;;12.79;44.43
26443;BME280;5563;52.296;6.806;2023-04-10T09:00:23;101639.47;;;12.71;44.32
26443;BME280;5563;52.296;6.806;2023-04-10T09:03:00;101644.72;;;12.73;44.30
26443;BME280;5563;52.296;6.806;2023-04-10T09:05:37;101647.88;;;12.78;44.31
26443;BME280;5563;52.296;6.806;2023-04-10T09:08:06;101663.84;;;12.90;44.80
26443;BME280;5563;52.296;6.806;2023-04-10T09:10:40;101636.59;;;12.85;44.53
26443;BME280;5563;52.296;6.806;2023-04-10T09:13:07;101657.44;;;13.15;44.83
26443;BME280;5563;52.296;6.806;2023-04-10T09:15:57;101634.22;;;13.27;44.49
26443;BME280;5563;52.296;6.806;2023-04-10T09:18:44;101631.78;;;13.57;44.67
26443;BME280;5563;52.296;6.806;2023-04-10T09:21:14;101638.66;;;13.81;43.02
26443;BME280;5563;52.296;6.806;2023-04-10T09:23:48;101650.19;;;13.93;43.59
26443;BME280;5563;52.296;6.806;2023-04-10T09:26:25;101628.41;;;13.86;43.48
26443;BME280;5563;52.296;6.806;2023-04-10T09:29:06;101619.97;;;13.91;43.09
26443;BME280;5563;52.296;6.806;2023-04-10T09:31:41;101625.16;;;14.15;44.22
26443;BME280;5563;52.296;6.806;2023-04-10T09:34:17;101628.56;;;14.28;43.43
26443;BME280;5563;52.296;6.806;2023-04-10T09:36:55;101621.44;;;14.38;43.86
26443;BME280;5563;52.296;6.806;2023-04-10T09:39:34;101617.13;;;14.46;42.73
26443;BME280;5563;52.296;6.806;2023-04-10T09:42:08;101610.66;;;14.49;42.08
26443;BME280;5563;52.296;6.806;2023-04-10T09:44:42;101615.34;;;14.56;42.61
26443;BME280;5563;52.296;6.806;2023-04-10T09:47:17;101600.91;;;14.68;41.58
26443;BME280;5563;52.296;6.806;2023-04-10T09:49:48;101593.81;;;14.67;41.56
26443;BME280;5563;52.296;6.806;2023-04-10T09:52:24;101580.53;;;14.45;41.20
26443;BME280;5563;52.296;6.806;2023-04-10T09:54:53;101599.84;;;14.60;41.90
26443;BME280;5563;52.296;6.806;2023-04-10T09:57:31;101581.09;;;14.69;42.49
26443;BME280;5563;52.296;6.806;2023-04-10T10:00:00;101594.75;;;15.07;40.59
26443;BME280;5563;52.296;6.806;2023-04-10T10:02:35;101594.97;;;15.25;40.12
26443;BME280;5563;52.296;6.806;2023-04-10T10:05:11;101584.16;;;15.46;40.16
26443;BME280;5563;52.296;6.806;2023-04-10T10:07:45;101577.97;;;15.55;39.34
26443;BME280;5563;52.296;6.806;2023-04-10T10:10:19;101549.94;;;15.48;38.49
26443;BME280;5563;52.296;6.806;2023-04-10T10:12:57;101560.56;;;15.49;38.65
26443;BME280;5563;52.296;6.806;2023-04-10T10:21:09;101545.00;;;15.43;39.64
26443;BME280;5563;52.296;6.806;2023-04-10T10:23:42;101538.94;;;15.60;39.89
26443;BME280;5563;52.296;6.806;2023-04-10T10:26:16;101508.22;;;15.63;38.99
26443;BME280;5563;52.296;6.806;2023-04-10T10:28:51;101510.38;;;15.78;39.02
26443;BME280;5563;52.296;6.806;2023-04-10T10:31:24;101507.41;;;15.91;37.65
26443;BME280;5563;52.296;6.806;2023-04-10T10:34:03;101500.59;;;15.96;37.99
26443;BME280;5563;52.296;6.806;2023-04-10T10:36:33;101483.75;;;16.04;38.30
26443;BME280;5563;52.296;6.806;2023-04-10T10:41:53;101483.19;;;16.10;37.43
26443;BME280;5563;52.296;6.806;2023-04-10T10:44:31;101474.69;;;16.05;37.65
26443;BME280;5563;52.296;6.806;2023-04-10T10:47:28;101479.22;;;15.95;37.59
26443;BME280;5563;52.296;6.806;2023-04-10T10:49:58;101478.81;;;15.90;38.09
26443;BME280;5563;52.296;6.806;2023-04-10T10:55:35;101475.69;;;15.85;38.40
26443;BME280;5563;52.296;6.806;2023-04-10T10:58:11;101471.19;;;15.85;37.68
26443;BME280;5563;52.296;6.806;2023-04-10T11:03:27;101458.69;;;15.56;38.11
26443;BME280;5563;52.296;6.806;2023-04-10T11:05:56;101443.44;;;15.56;38.29
26443;BME280;5563;52.296;6.806;2023-04-10T11:08:51;101444.56;;;15.73;39.09
26443;BME280;5563;52.296;6.806;2023-04-10T11:22:00;101444.13;;;15.77;38.63
26443;BME280;5563;52.296;6.806;2023-04-10T11:24:54;101445.25;;;16.03;39.48
26443;BME280;5563;52.296;6.806;2023-04-10T11:27:40;101435.88;;;16.07;38.54
26443;BME280;5563;52.296;6.806;2023-04-10T11:30:28;101426.28;;;16.05;38.77
26443;BME280;5563;52.296;6.806;2023-04-10T11:32:56;101405.97;;;16.20;39.13
26443;BME280;5563;52.296;6.806;2023-04-10T11:35:40;101410.34;;;16.31;38.31
26443;BME280;5563;52.296;6.806;2023-04-10T11:38:12;101407.22;;;16.35;38.73
26443;BME280;5563;52.296;6.806;2023-04-10T11:40:55;101403.22;;;16.39;37.98
26443;BME280;5563;52.296;6.806;2023-04-10T11:43:22;101402.88;;;16.25;37.96
26443;BME280;5563;52.296;6.806;2023-04-10T11:46:03;101392.03;;;16.07;38.35
26443;BME280;5563;52.296;6.806;2023-04-10T11:48:32;101393.28;;;16.03;38.58
26443;BME280;5563;52.296;6.806;2023-04-10T11:51:10;101399.22;;;16.06;39.00
26443;BME280;5563;52.296;6.806;2023-04-10T11:53:44;101384.91;;;16.15;38.45
26443;BME280;5563;52.296;6.806;2023-04-10T11:56:19;101379.63;;;16.23;39.07
26443;BME280;5563;52.296;6.806;2023-04-10T11:58:50;101378.56;;;16.44;38.60
26443;BME280;5563;52.296;6.806;2023-04-10T12:01:26;101362.81;;;16.58;38.98
26443;BME280;5563;52.296;6.806;2023-04-10T12:03:53;101368.28;;;16.66;38.09
26443;BME280;5563;52.296;6.806;2023-04-10T12:06:20;101374.66;;;16.65;37.53
26443;BME280;5563;52.296;6.806;2023-04-10T12:08:54;101358.00;;;16.52;37.46
26443;BME280;5563;52.296;6.806;2023-04-10T12:11:25;101350.31;;;16.57;38.52
26443;BME280;5563;52.296;6.806;2023-04-10T12:13:59;101338.16;;;16.53;37.71
26443;BME280;5563;52.296;6.806;2023-04-10T12:16:26;101338.50;;;16.68;37.79
26443;BME280;5563;52.296;6.806;2023-04-10T12:19:01;101342.91;;;16.69;37.56
26443;BME280;5563;52.296;6.806;2023-04-10T12:21:27;101354.50;;;16.69;37.24
26443;BME280;5563;52.296;6.806;2023-04-10T12:24:01;101341.47;;;16.74;37.03
26443;BME280;5563;52.296;6.806;2023-04-10T12:26:28;101342.47;;;16.91;37.48
26443;BME280;5563;52.296;6.806;2023-04-10T12:29:07;101328.56;;;16.95;37.28
26443;BME280;5563;52.296;6.806;2023-04-10T12:31:35;101318.38;;;17.07;36.64
26443;BME280;5563;52.296;6.806;2023-04-10T12:34:09;101308.69;;;17.14;37.27
26443;BME280;5563;52.296;6.806;2023-04-10T12:36:36;101301.91;;;17.27;36.92
26443;BME280;5563;52.296;6.806;2023-04-10T12:39:21;101307.69;;;17.76;36.19
26443;BME280;5563;52.296;6.806;2023-04-10T12:44:56;101287.13;;;17.75;35.57
26443;BME280;5563;52.296;6.806;2023-04-10T12:47:44;101291.00;;;17.55;36.49
26443;BME280;5563;52.296;6.806;2023-04-10T12:50:20;101290.06;;;17.20;36.41
26443;BME280;5563;52.296;6.806;2023-04-10T12:53:02;101288.06;;;17.05;36.18
26443;BME280;5563;52.296;6.806;2023-04-10T12:55:37;101283.03;;;16.92;37.28
26443;BME280;5563;52.296;6.806;2023-04-10T12:58:15;101287.06;;;16.88;36.70
26443;BME280;5563;52.296;6.806;2023-04-10T13:00:46;101287.06;;;16.88;36.93
26443;BME280;5563;52.296;6.806;2023-04-10T13:03:20;101272.97;;;16.77;36.31
26443;BME280;5563;52.296;6.806;2023-04-10T13:05:53;101271.81;;;16.79;36.12
26443;BME280;5563;52.296;6.806;2023-04-10T13:08:21;101264.88;;;16.77;36.20
26443;BME280;5563;52.296;6.806;2023-04-10T13:10:54;101258.81;;;16.75;35.88
26443;BME280;5563;52.296;6.806;2023-04-10T13:13:30;101258.66;;;16.76;36.52
26443;BME280;5563;52.296;6.806;2023-04-10T13:16:05;101269.03;;;16.89;35.89
26443;BME280;5563;52.296;6.806;2023-04-10T13:18:44;101250.66;;;16.84;35.46
26443;BME280;5563;52.296;6.806;2023-04-10T13:21:11;101251.56;;;16.93;35.68
26443;BME280;5563;52.296;6.806;2023-04-10T13:23:38;101254.22;;;16.85;36.02
26443;BME280;5563;52.296;6.806;2023-04-10T13:26:11;101244.34;;;16.93;36.82
26443;BME280;5563;52.296;6.806;2023-04-10T13:28:45;101233.09;;;16.98;36.55
26443;BME280;5563;52.296;6.806;2023-04-10T13:31:19;101218.09;;;16.95;36.30
26443;BME280;5563;52.296;6.806;2023-04-10T13:33:53;101224.81;;;16.91;35.92
26443;BME280;5563;52.296;6.806;2023-04-10T13:36:20;101212.63;;;16.87;35.58
26443;BME280;5563;52.296;6.806;2023-04-10T13:38:53;101206.44;;;16.87;36.24
26443;BME280;5563;52.296;6.806;2023-04-10T13:41:20;101193.63;;;16.89;35.80
26443;BME280;5563;52.296;6.806;2023-04-10T13:43:53;101181.34;;;16.86;35.98
26443;BME280;5563;52.296;6.806;2023-04-10T13:46:20;101178.81;;;16.67;36.82
26443;BME280;5563;52.296;6.806;2023-04-10T13:48:53;101178.88;;;16.58;36.02
26443;BME280;5563;52.296;6.806;2023-04-10T13:51:20;101163.34;;;16.52;36.84
26443;BME280;5563;52.296;6.806;2023-04-10T13:53:53;101170.97;;;16.56;36.96
26443;BME280;5563;52.296;6.806;2023-04-10T13:56:20;101164.50;;;16.49;36.35
26443;BME280;5563;52.296;6.806;2023-04-10T13:58:53;101151.78;;;16.42;36.31
26443;BME280;5563;52.296;6.806;2023-04-10T14:01:29;101132.25;;;16.22;36.98
26443;BME280;5563;52.296;6.806;2023-04-10T14:04:02;101150.75;;;16.25;36.81
26443;BME280;5563;52.296;6.806;2023-04-10T14:06:29;101140.91;;;16.16;36.78
26443;BME280;5563;52.296;6.806;2023-04-10T14:09:03;101121.41;;;16.14;38.06
26443;BME280;5563;52.296;6.806;2023-04-10T14:11:29;101128.00;;;16.19;38.75
26443;BME280;5563;52.296;6.806;2023-04-10T14:14:12;101123.78;;;16.17;37.20
26443;BME280;5563;52.296;6.806;2023-04-10T14:16:52;101121.69;;;16.11;38.18